createdAt,value
2023-04-16T00:00:18.768Z,3.00
2023-04-16T00:02:45.248Z,3.17
2023-04-16T00:05:11.778Z,3.90
2023-04-16T00:07:38.238Z,2.60
2023-04-16T00:10:04.776Z,2.60
2023-04-16T00:12:31.093Z,2.80
2023-04-16T00:14:57.579Z,2.60
2023-04-16T00:17:23.959Z,2.63
2023-04-16T00:19:50.518Z,2.55
2023-04-16T00:22:16.888Z,2.30
2023-04-16T00:24:43.217Z,2.78
2023-04-16T00:27:09.556Z,2.13
2023-04-16T00:29:35.923Z,2.65
2023-04-16T00:32:02.489Z,2.70
2023-04-16T00:34:28.819Z,2.53
2023-04-16T00:36:55.111Z,2.75
2023-04-16T00:39:21.442Z,2.42
2023-04-16T00:41:49.210Z,2.13
2023-04-16T00:44:15.573Z,2.30
2023-04-16T00:46:42.462Z,2.50
2023-04-16T00:49:09.876Z,2.20
2023-04-16T00:51:36.789Z,2.55
2023-04-16T00:54:03.630Z,2.30
2023-04-16T00:56:30.569Z,2.50
2023-04-16T00:58:56.889Z,2.33
2023-04-16T01:01:23.385Z,2.38
2023-04-16T01:03:49.988Z,2.75
2023-04-16T01:06:17.324Z,2.90
2023-04-16T01:08:43.773Z,2.55
2023-04-16T01:11:10.807Z,3.45
2023-04-16T01:13:40.240Z,2.83
2023-04-16T01:16:08.001Z,3.58
2023-04-16T01:18:34.899Z,3.80
2023-04-16T01:21:01.382Z,3.70
2023-04-16T01:23:27.685Z,3.50
2023-04-16T01:25:54.010Z,3.45
2023-04-16T01:28:20.422Z,3.45
2023-04-16T01:30:46.885Z,3.80
2023-04-16T01:33:13.725Z,4.15
2023-04-16T01:35:41.107Z,3.35
2023-04-16T01:38:08.388Z,3.17
2023-04-16T01:40:35.312Z,4.18
2023-04-16T01:43:01.624Z,3.40
2023-04-16T01:45:28.035Z,4.00
2023-04-16T01:47:54.384Z,4.20
2023-04-16T01:50:21.364Z,4.25
2023-04-16T01:52:47.622Z,4.40
2023-04-16T01:55:13.896Z,4.10
2023-04-16T01:57:40.294Z,4.25
2023-04-16T02:00:08.346Z,4.30
2023-04-16T02:02:35.471Z,4.20
2023-04-16T02:05:02.064Z,4.28
2023-04-16T02:07:28.521Z,4.68
2023-04-16T02:09:54.903Z,5.10
2023-04-16T02:12:21.303Z,5.45
2023-04-16T02:14:47.604Z,5.15
2023-04-16T02:17:15.253Z,5.35
2023-04-16T02:19:41.680Z,5.53
2023-04-16T02:22:08.038Z,6.28
2023-04-16T02:24:34.357Z,5.85
2023-04-16T02:27:00.820Z,6.35
2023-04-16T02:29:27.142Z,6.40
2023-04-16T02:31:53.554Z,6.25
2023-04-16T02:34:19.965Z,6.85
2023-04-16T02:36:46.342Z,6.68
2023-04-16T02:39:12.628Z,6.78
2023-04-16T02:41:39.208Z,6.90
2023-04-16T02:44:05.697Z,6.70
2023-04-16T02:46:32.051Z,6.22
2023-04-16T02:48:58.487Z,7.22
2023-04-16T02:51:24.824Z,7.43
2023-04-16T02:53:51.158Z,7.65
2023-04-16T02:56:17.470Z,6.65
2023-04-16T02:58:43.801Z,7.22
2023-04-16T03:01:10.381Z,6.78
2023-04-16T03:03:36.772Z,7.35
2023-04-16T03:06:03.246Z,7.20
2023-04-16T03:08:29.597Z,7.28
2023-04-16T03:10:55.959Z,7.35
2023-04-16T03:13:22.395Z,7.22
2023-04-16T03:15:51.718Z,8.18
2023-04-16T03:18:18.094Z,8.73
2023-04-16T03:20:44.519Z,8.38
2023-04-16T03:23:10.902Z,8.55
2023-04-16T03:25:37.226Z,7.43
2023-04-16T03:28:03.964Z,8.40
2023-04-16T03:30:30.660Z,8.63
2023-04-16T03:32:57.026Z,8.35
2023-04-16T03:35:23.527Z,8.32
2023-04-16T03:37:50.471Z,8.32
2023-04-16T03:40:16.784Z,8.05
2023-04-16T03:42:43.126Z,8.70
2023-04-16T03:45:09.545Z,7.65
2023-04-16T03:47:36.077Z,7.32
2023-04-16T03:50:02.468Z,7.65
2023-04-16T03:52:28.819Z,8.50
2023-04-16T03:54:55.167Z,7.28
2023-04-16T03:57:21.490Z,7.57
2023-04-16T03:59:47.812Z,7.82
2023-04-16T04:02:14.172Z,7.22
2023-04-16T04:04:40.957Z,8.20
2023-04-16T04:07:07.550Z,7.47
2023-04-16T04:09:33.991Z,7.75
2023-04-16T04:12:00.776Z,8.20
2023-04-16T04:14:27.044Z,8.43
2023-04-16T04:16:53.310Z,9.10
2023-04-16T04:19:19.584Z,8.50
2023-04-16T04:21:45.849Z,9.38
2023-04-16T04:24:12.162Z,9.85
2023-04-16T04:26:38.426Z,9.23
2023-04-16T04:29:04.705Z,7.85
2023-04-16T04:31:31.265Z,9.10
2023-04-16T04:33:57.594Z,8.90
2023-04-16T04:36:23.888Z,9.23
2023-04-16T04:38:50.263Z,9.00
2023-04-16T04:41:16.708Z,9.02
2023-04-16T04:43:42.959Z,8.25
2023-04-16T04:46:09.313Z,9.40
2023-04-16T04:48:35.954Z,9.25
2023-04-16T04:51:05.305Z,8.05
2023-04-16T04:53:31.837Z,9.13
2023-04-16T04:56:05.486Z,8.88
2023-04-16T04:58:38.321Z,8.18
2023-04-16T05:01:04.843Z,8.77
2023-04-16T05:03:31.632Z,7.75
2023-04-16T05:05:58.178Z,7.63
2023-04-16T05:08:24.491Z,7.95
2023-04-16T05:10:51.150Z,7.97
2023-04-16T05:13:17.467Z,8.15
2023-04-16T05:15:44.995Z,9.07
2023-04-16T05:18:11.421Z,7.72
2023-04-16T05:20:37.905Z,8.55
2023-04-16T05:23:04.194Z,8.75
2023-04-16T05:25:30.839Z,8.88
2023-04-16T05:27:57.285Z,8.77
2023-04-16T05:30:23.614Z,9.50
2023-04-16T05:32:49.941Z,8.00
2023-04-16T05:35:17.667Z,8.73
2023-04-16T05:37:44.246Z,9.35
2023-04-16T05:40:11.900Z,9.10
2023-04-16T05:42:38.151Z,9.30
2023-04-16T05:45:04.964Z,9.07
2023-04-16T05:47:31.287Z,9.18
2023-04-16T05:49:57.733Z,9.65
2023-04-16T05:52:24.063Z,9.50
2023-04-16T05:54:50.420Z,9.85
2023-04-16T05:57:16.741Z,8.95
2023-04-16T05:59:43.096Z,9.75
2023-04-16T06:02:09.484Z,9.23
2023-04-16T06:04:36.009Z,10.40
2023-04-16T06:07:02.414Z,9.25
2023-04-16T06:09:29.409Z,9.38
2023-04-16T06:11:56.281Z,9.45
2023-04-16T06:14:22.571Z,9.63
2023-04-16T06:16:49.269Z,9.18
2023-04-16T06:19:15.573Z,8.93
2023-04-16T06:21:41.951Z,9.55
2023-04-16T06:24:08.271Z,9.43
2023-04-16T06:26:34.561Z,8.98
2023-04-16T06:29:01.024Z,10.32
2023-04-16T06:31:27.386Z,9.57
2023-04-16T06:33:53.724Z,10.32
2023-04-16T06:36:20.258Z,9.73
2023-04-16T06:38:46.631Z,10.38
2023-04-16T06:41:14.012Z,10.43
2023-04-16T06:43:40.537Z,8.93
2023-04-16T06:46:06.802Z,10.90
2023-04-16T06:48:33.131Z,11.65
2023-04-16T06:51:00.391Z,10.25
2023-04-16T06:53:26.724Z,10.77
2023-04-16T06:55:53.046Z,10.23
2023-04-16T06:58:19.447Z,11.25
2023-04-16T07:00:45.983Z,11.18
2023-04-16T07:03:12.579Z,10.20
2023-04-16T07:05:39.032Z,10.63
2023-04-16T07:08:05.385Z,11.02
2023-04-16T07:10:31.750Z,11.15
2023-04-16T07:12:58.189Z,10.25
2023-04-16T07:15:24.562Z,10.80
2023-04-16T07:17:50.995Z,11.15
2023-04-16T07:20:17.384Z,10.88
2023-04-16T07:22:43.866Z,10.75
2023-04-16T07:25:10.367Z,12.27
2023-04-16T07:27:36.664Z,12.77
2023-04-16T07:30:02.989Z,12.32
2023-04-16T07:32:29.286Z,12.25
2023-04-16T07:34:56.083Z,12.88
2023-04-16T07:37:22.719Z,11.88
2023-04-16T07:39:49.156Z,11.77
2023-04-16T07:42:15.543Z,10.93
2023-04-16T07:44:41.931Z,11.45
2023-04-16T07:47:08.207Z,11.55
2023-04-16T07:49:34.527Z,10.70
2023-04-16T07:52:00.924Z,10.77
2023-04-16T07:54:28.982Z,9.85
2023-04-16T07:56:55.648Z,10.88
2023-04-16T07:59:24.022Z,9.35
2023-04-16T08:01:52.622Z,10.50
2023-04-16T08:04:24.417Z,10.38
2023-04-16T08:06:51.620Z,10.70
2023-04-16T08:09:19.027Z,9.30
2023-04-16T08:11:45.557Z,10.07
2023-04-16T08:14:11.990Z,9.35
2023-04-16T08:16:38.861Z,9.73
2023-04-16T08:19:05.583Z,9.63
2023-04-16T08:21:32.034Z,9.73
2023-04-16T08:23:58.468Z,9.10
2023-04-16T08:26:24.787Z,8.98
2023-04-16T08:28:51.159Z,8.57
2023-04-16T08:31:17.563Z,9.70
2023-04-16T08:33:43.967Z,8.15
2023-04-16T08:36:10.332Z,8.18
2023-04-16T08:38:36.786Z,7.68
2023-04-16T08:41:05.773Z,7.47
2023-04-16T08:43:37.521Z,7.97
2023-04-16T08:46:04.798Z,7.45
2023-04-16T08:48:33.407Z,7.10
2023-04-16T08:51:00.459Z,7.20
2023-04-16T08:53:35.311Z,6.90
2023-04-16T08:56:03.689Z,7.43
2023-04-16T08:58:31.898Z,7.78
2023-04-16T09:00:58.341Z,6.70
2023-04-16T09:03:24.845Z,6.20
2023-04-16T09:05:51.782Z,6.90
2023-04-16T09:08:18.410Z,6.90
2023-04-16T09:10:44.834Z,7.57
2023-04-16T09:13:13.411Z,6.95
2023-04-16T09:15:40.024Z,6.50
2023-04-16T09:18:06.453Z,6.72
2023-04-16T09:20:32.801Z,6.70
2023-04-16T09:22:59.314Z,6.45
2023-04-16T09:25:26.366Z,6.45
2023-04-16T09:27:52.692Z,6.20
2023-04-16T09:30:24.353Z,5.60
2023-04-16T09:32:51.538Z,6.57
2023-04-16T09:35:18.900Z,6.82
2023-04-16T09:37:54.591Z,6.07
2023-04-16T09:40:24.133Z,6.60
2023-04-16T09:42:50.597Z,6.47
2023-04-16T09:45:16.919Z,6.15
2023-04-16T09:47:44.216Z,6.32
2023-04-16T09:50:15.819Z,5.95
2023-04-16T09:52:44.788Z,6.80
2023-04-16T09:55:11.175Z,6.80
2023-04-16T09:57:38.214Z,6.28
2023-04-16T10:00:06.087Z,5.95
2023-04-16T10:02:34.595Z,5.90
2023-04-16T10:05:01.890Z,6.35
2023-04-16T10:07:29.034Z,6.40
2023-04-16T10:09:55.970Z,7.65
2023-04-16T10:12:22.288Z,6.78
2023-04-16T10:14:50.053Z,6.47
2023-04-16T10:17:16.870Z,6.65
2023-04-16T10:19:43.830Z,7.03
2023-04-16T10:22:11.292Z,6.55
2023-04-16T10:24:38.155Z,5.85
2023-04-16T10:27:04.539Z,6.35
2023-04-16T10:29:31.563Z,6.07
2023-04-16T10:31:58.386Z,7.68
2023-04-16T10:34:24.979Z,6.78
2023-04-16T10:36:53.103Z,6.82
2023-04-16T10:39:21.192Z,6.55
2023-04-16T10:41:47.629Z,7.95
2023-04-16T10:44:16.401Z,8.07
2023-04-16T10:46:43.607Z,7.80
2023-04-16T10:49:15.090Z,8.20
2023-04-16T10:51:41.895Z,7.95
2023-04-16T10:54:08.152Z,8.40
2023-04-16T10:56:35.646Z,7.95
2023-04-16T10:59:06.010Z,8.02
2023-04-16T11:01:34.093Z,8.00
2023-04-16T11:04:21.195Z,7.82
2023-04-16T11:07:01.921Z,7.57
2023-04-16T11:09:47.146Z,8.15
2023-04-16T11:12:14.714Z,8.88
2023-04-16T11:14:41.966Z,7.35
2023-04-16T11:17:08.849Z,8.35
2023-04-16T11:19:38.392Z,8.77
2023-04-16T11:22:05.157Z,9.52
2023-04-16T11:24:32.322Z,9.68
2023-04-16T11:26:58.776Z,9.18
2023-04-16T11:29:25.372Z,9.30
2023-04-16T11:31:52.273Z,9.25
2023-04-16T11:34:19.013Z,9.32
2023-04-16T11:36:46.075Z,9.30
2023-04-16T11:39:12.678Z,8.90
2023-04-16T11:41:42.664Z,9.50
2023-04-16T11:44:16.920Z,9.75
2023-04-16T11:46:43.437Z,8.90
2023-04-16T11:49:10.208Z,8.10
2023-04-16T11:51:47.319Z,9.30
2023-04-16T11:54:20.434Z,9.50
2023-04-16T11:56:50.354Z,9.02
2023-04-16T11:59:17.994Z,9.63
2023-04-16T12:01:48.343Z,9.27
2023-04-16T12:04:16.091Z,8.88
2023-04-16T12:07:01.234Z,10.20
2023-04-16T12:09:27.544Z,10.43
2023-04-16T12:11:54.152Z,10.20
2023-04-16T12:14:20.569Z,9.23
2023-04-16T12:16:47.364Z,9.77
2023-04-16T12:19:13.892Z,9.40
2023-04-16T12:21:41.351Z,8.65
2023-04-16T12:24:08.983Z,8.80
2023-04-16T12:26:42.702Z,8.60
2023-04-16T12:29:19.791Z,9.82
2023-04-16T12:31:46.594Z,8.30
2023-04-16T12:34:15.000Z,8.43
2023-04-16T12:36:42.111Z,8.65
2023-04-16T12:39:09.074Z,8.38
2023-04-16T12:41:36.883Z,8.68
2023-04-16T12:44:09.113Z,8.70
2023-04-16T12:46:36.793Z,8.27
2023-04-16T12:49:03.536Z,8.60
2023-04-16T12:51:29.878Z,8.60
2023-04-16T12:53:56.261Z,8.73
2023-04-16T12:56:22.724Z,7.63
2023-04-16T12:58:51.858Z,7.63
2023-04-16T13:01:18.840Z,8.45
2023-04-16T13:03:45.868Z,8.40
2023-04-16T13:06:13.464Z,7.95
2023-04-16T13:08:40.422Z,8.13
2023-04-16T13:11:07.739Z,8.70
2023-04-16T13:13:34.395Z,8.52
2023-04-16T13:16:00.872Z,8.63
2023-04-16T13:18:27.919Z,8.38
2023-04-16T13:20:54.330Z,9.23
2023-04-16T13:23:20.694Z,8.60
2023-04-16T13:25:47.982Z,9.77
2023-04-16T13:28:16.327Z,9.07
2023-04-16T13:30:42.843Z,9.23
2023-04-16T13:33:09.292Z,9.07
2023-04-16T13:35:35.802Z,9.05
2023-04-16T13:38:02.165Z,10.10
2023-04-16T13:40:28.824Z,10.00
2023-04-16T13:42:55.175Z,10.48
2023-04-16T13:45:21.592Z,10.10
2023-04-16T13:47:48.100Z,11.40
2023-04-16T13:50:14.504Z,16.73
2023-04-16T13:52:41.110Z,13.13
2023-04-16T13:55:09.417Z,10.43
2023-04-16T13:57:35.717Z,10.00
2023-04-16T14:00:02.937Z,10.27
2023-04-16T14:02:29.364Z,10.23
2023-04-16T14:04:55.752Z,10.40
2023-04-16T14:07:25.677Z,11.15
2023-04-16T14:09:51.985Z,9.83
2023-04-16T14:12:18.439Z,10.70
2023-04-16T14:14:44.847Z,9.68
2023-04-16T14:17:11.325Z,9.80
2023-04-16T14:19:37.673Z,8.68
2023-04-16T14:22:04.004Z,8.63
2023-04-16T14:24:30.413Z,9.23
2023-04-16T14:26:56.824Z,8.23
2023-04-16T14:29:23.097Z,8.70
2023-04-16T14:31:50.409Z,8.40
2023-04-16T14:34:16.858Z,8.50
2023-04-16T14:36:44.171Z,8.35
2023-04-16T14:39:11.390Z,8.25
2023-04-16T14:41:37.879Z,8.05
2023-04-16T14:44:06.038Z,10.00
2023-04-16T14:46:33.749Z,9.43
2023-04-16T14:49:00.123Z,8.85
2023-04-16T14:51:27.377Z,8.50
2023-04-16T14:53:53.722Z,8.02
2023-04-16T14:56:20.086Z,10.93
2023-04-16T14:58:46.392Z,8.40
2023-04-16T15:01:14.709Z,8.70
2023-04-16T15:03:41.840Z,8.68
2023-04-16T15:06:08.763Z,8.35
2023-04-16T15:08:35.446Z,7.85
2023-04-16T15:11:01.913Z,9.20
2023-04-16T15:13:33.928Z,8.25
2023-04-16T15:16:01.418Z,8.50
2023-04-16T15:18:29.398Z,8.30
2023-04-16T15:20:55.807Z,8.70
2023-04-16T15:23:22.592Z,9.63
2023-04-16T15:25:48.917Z,8.98
2023-04-16T15:28:15.883Z,8.52
2023-04-16T15:30:42.336Z,8.30
2023-04-16T15:33:08.978Z,9.13
2023-04-16T15:35:35.849Z,8.45
2023-04-16T15:38:04.682Z,9.43
2023-04-16T15:40:31.101Z,9.68
2023-04-16T15:42:57.519Z,8.77
2023-04-16T15:45:23.962Z,10.55
2023-04-16T15:47:51.384Z,10.93
2023-04-16T15:50:18.240Z,12.68
2023-04-16T15:52:44.903Z,11.65
2023-04-16T15:55:11.552Z,13.07
2023-04-16T15:57:37.851Z,10.88
2023-04-16T16:00:13.384Z,12.02
2023-04-16T16:02:40.367Z,11.88
2023-04-16T16:05:09.296Z,23.85
2023-04-16T16:07:35.607Z,16.08
2023-04-16T16:10:02.098Z,12.93
2023-04-16T16:12:28.702Z,12.02
2023-04-16T16:14:55.311Z,10.90
2023-04-16T16:17:21.687Z,10.60
2023-04-16T16:19:48.246Z,10.07
2023-04-16T16:22:15.982Z,9.93
2023-04-16T16:24:42.376Z,11.20
2023-04-16T16:27:08.862Z,11.50
2023-04-16T16:29:35.129Z,11.38
2023-04-16T16:32:01.461Z,15.35
2023-04-16T16:34:28.213Z,10.70
2023-04-16T16:36:54.512Z,11.38
2023-04-16T16:39:24.365Z,9.90
2023-04-16T16:41:52.484Z,11.00
2023-04-16T16:44:19.359Z,10.25
2023-04-16T16:46:45.691Z,12.30
2023-04-16T16:49:12.205Z,11.50
2023-04-16T16:51:38.738Z,12.13
2023-04-16T16:54:05.803Z,12.07
2023-04-16T16:56:32.118Z,11.88
2023-04-16T16:58:58.472Z,13.63
2023-04-16T17:01:25.592Z,11.32
2023-04-16T17:03:52.173Z,11.20
2023-04-16T17:06:18.674Z,11.10
2023-04-16T17:08:46.167Z,13.13
2023-04-16T17:11:12.446Z,11.63
2023-04-16T17:13:38.710Z,12.40
2023-04-16T17:16:05.347Z,12.52
2023-04-16T17:18:31.670Z,12.95
2023-04-16T17:20:57.997Z,10.80
2023-04-16T17:23:24.319Z,10.82
2023-04-16T17:25:50.669Z,12.32
2023-04-16T17:28:17.225Z,12.38
2023-04-16T17:30:43.712Z,11.75
2023-04-16T17:33:10.118Z,11.27
2023-04-16T17:35:36.551Z,17.83
2023-04-16T17:38:02.925Z,14.20
2023-04-16T17:40:29.362Z,15.73
2023-04-16T17:42:55.804Z,11.82
2023-04-16T17:45:22.143Z,11.77
2023-04-16T17:47:48.481Z,11.63
2023-04-16T17:50:14.865Z,11.23
2023-04-16T17:52:41.251Z,11.73
2023-04-16T17:55:07.762Z,10.68
2023-04-16T17:57:34.062Z,11.80
2023-04-16T18:00:00.411Z,11.32
2023-04-16T18:02:27.084Z,11.23
2023-04-16T18:04:53.759Z,11.02
2023-04-16T18:07:20.224Z,11.85
2023-04-16T18:09:46.555Z,11.20
2023-04-16T18:12:13.076Z,11.15
2023-04-16T18:14:40.618Z,11.98
2023-04-16T18:17:06.996Z,11.05
2023-04-16T18:19:33.360Z,11.48
2023-04-16T18:21:59.675Z,11.07
2023-04-16T18:24:25.999Z,11.65
2023-04-16T18:29:19.142Z,11.60
2023-04-16T18:31:45.749Z,11.80
2023-04-16T18:34:12.572Z,11.57
2023-04-16T18:36:39.125Z,11.43
2023-04-16T18:39:07.381Z,11.95
2023-04-16T18:41:33.698Z,11.68
2023-04-16T18:44:00.069Z,11.82
2023-04-16T18:46:27.507Z,12.18
2023-04-16T18:48:54.297Z,13.07
2023-04-16T18:51:21.187Z,13.52
2023-04-16T18:53:47.712Z,15.05
2023-04-16T18:56:14.188Z,13.35
2023-04-16T18:58:40.788Z,13.35
2023-04-16T19:01:12.959Z,12.77
2023-04-16T19:03:39.549Z,13.73
2023-04-16T19:06:06.230Z,14.13
2023-04-16T19:08:32.652Z,14.30
2023-04-16T19:10:58.964Z,12.70
2023-04-16T19:13:25.394Z,14.82
2023-04-16T19:15:51.791Z,13.45
2023-04-16T19:18:18.105Z,13.73
2023-04-16T19:20:44.458Z,13.77
2023-04-16T19:23:11.482Z,13.75
2023-04-16T19:25:39.281Z,12.63
2023-04-16T19:28:05.576Z,14.07
2023-04-16T19:30:32.007Z,14.88
2023-04-16T19:32:58.508Z,15.05
2023-04-16T19:35:25.729Z,13.75
2023-04-16T19:37:52.032Z,14.02
2023-04-16T19:40:18.630Z,14.27
2023-04-16T19:42:45.400Z,14.90
2023-04-16T19:45:11.765Z,14.15
2023-04-16T19:47:38.384Z,14.55
2023-04-16T19:50:04.932Z,14.50
2023-04-16T19:52:37.281Z,13.93
2023-04-16T19:55:03.926Z,14.20
2023-04-16T19:57:30.495Z,14.50
2023-04-16T19:59:57.317Z,14.38
2023-04-16T20:02:23.760Z,14.13
2023-04-16T20:04:50.752Z,14.15
2023-04-16T20:07:17.516Z,14.93
2023-04-16T20:09:43.925Z,15.23
2023-04-16T20:12:10.479Z,15.45
2023-04-16T20:14:36.831Z,15.38
2023-04-16T20:17:03.545Z,15.93
2023-04-16T20:19:33.682Z,16.02
2023-04-16T20:22:00.418Z,15.52
2023-04-16T20:24:26.891Z,15.73
2023-04-16T20:26:53.283Z,15.23
2023-04-16T20:29:19.636Z,15.98
2023-04-16T20:31:46.174Z,16.98
2023-04-16T20:34:12.824Z,15.50
2023-04-16T20:36:39.190Z,16.58
2023-04-16T20:39:07.183Z,17.40
2023-04-16T20:41:33.924Z,15.82
2023-04-16T20:44:05.311Z,15.77
2023-04-16T20:46:34.045Z,16.00
2023-04-16T20:49:01.123Z,16.13
2023-04-16T20:51:31.495Z,15.55
2023-04-16T20:53:58.119Z,16.27
2023-04-16T20:56:24.455Z,16.98
2023-04-16T20:58:53.222Z,16.45
2023-04-16T21:01:20.526Z,16.08
2023-04-16T21:03:47.126Z,16.65
2023-04-16T21:06:17.617Z,16.33
2023-04-16T21:08:43.945Z,15.57
2023-04-16T21:11:10.363Z,16.63
2023-04-16T21:13:36.677Z,16.58
2023-04-16T21:16:04.782Z,16.77
2023-04-16T21:18:31.222Z,17.73
2023-04-16T21:20:57.655Z,16.63
2023-04-16T21:23:23.951Z,15.60
2023-04-16T21:25:50.427Z,16.52
2023-04-16T21:28:16.947Z,17.83
2023-04-16T21:30:43.336Z,16.65
2023-04-16T21:33:11.779Z,16.30
2023-04-16T21:35:38.037Z,16.58
2023-04-16T21:38:04.399Z,16.92
2023-04-16T21:40:30.676Z,16.05
2023-04-16T21:42:57.116Z,16.98
2023-04-16T21:45:23.504Z,15.88
2023-04-16T21:47:49.854Z,15.50
2023-04-16T21:50:16.310Z,15.38
2023-04-16T21:52:46.690Z,14.52
2023-04-16T21:55:14.237Z,14.63
2023-04-16T21:57:40.730Z,14.48
2023-04-16T22:00:09.742Z,15.27
2023-04-16T22:02:36.319Z,14.35
2023-04-16T22:05:02.998Z,15.70
2023-04-16T22:07:30.509Z,15.18
2023-04-16T22:09:57.041Z,14.60
2023-04-16T22:12:23.397Z,15.73
2023-04-16T22:17:22.211Z,15.15
2023-04-16T22:19:49.266Z,15.93
2023-04-16T22:22:15.772Z,15.27
2023-04-16T22:24:42.192Z,14.95
2023-04-16T22:27:08.480Z,14.70
2023-04-16T22:29:34.789Z,14.70
2023-04-16T22:32:01.983Z,15.00
2023-04-16T22:34:28.402Z,15.23
2023-04-16T22:36:54.725Z,17.08
2023-04-16T22:39:21.074Z,17.38
2023-04-16T22:41:47.421Z,16.85
2023-04-16T22:44:13.963Z,17.42
2023-04-16T22:46:40.826Z,17.23
2023-04-16T22:49:07.096Z,16.85
2023-04-16T22:51:33.521Z,16.90
2023-04-16T22:53:59.819Z,17.25
2023-04-16T22:56:28.861Z,15.05
2023-04-16T22:58:55.417Z,15.35
2023-04-16T23:01:21.883Z,15.20
2023-04-16T23:03:48.388Z,16.55
2023-04-16T23:06:14.857Z,16.73
2023-04-16T23:08:41.324Z,16.98
2023-04-16T23:11:07.612Z,17.38
2023-04-16T23:13:33.993Z,16.38
2023-04-16T23:16:00.403Z,16.88
2023-04-16T23:18:26.834Z,17.33
2023-04-16T23:20:53.435Z,18.42
2023-04-16T23:23:19.868Z,18.65
2023-04-16T23:25:46.175Z,17.42
2023-04-16T23:28:12.523Z,17.98
2023-04-16T23:30:38.829Z,17.70
2023-04-16T23:33:05.352Z,18.35
2023-04-16T23:35:31.650Z,18.08
2023-04-16T23:37:57.978Z,18.13
2023-04-16T23:40:24.401Z,19.08
2023-04-16T23:42:50.959Z,18.67
2023-04-16T23:45:17.418Z,17.80
2023-04-16T23:47:44.366Z,16.85
2023-04-16T23:50:10.944Z,18.83
2023-04-16T23:52:37.401Z,18.65
2023-04-16T23:55:04.050Z,18.70
2023-04-16T23:57:30.611Z,18.13
2023-04-16T23:59:56.990Z,19.35
